Time;durP1;ratioP1;P1;durP2;ratioP2;P2;SDS_P1;SDS_P2;PMS_P1;PMS_P2;Temp;Humidity;BMP_temperature;BMP_pressure;BME280_temperature;BME280_humidity;BME280_pressure;Samples;Min_cycle;Max_cycle;Signal;HPM_P1;HPM_P2
2023/03/20 00:00:34;;;;;;;31.37;19.07;;;12.20;99.90;;;;;;4976390;28;20184;-81
2023/03/20 00:03:00;;;;;;;31.17;17.70;;;12.20;99.90;;;;;;4975956;28;20177;-80
2023/03/20 00:05:33;;;;;;;32.07;18.00;;;12.10;99.90;;;;;;4975830;28;20979;-82
2023/03/20 00:08:14;;;;;;;34.10;18.90;;;12.10;99.90;;;;;;4974931;28;20422;-83
2023/03/20 00:11:07;;;;;;;33.13;20.07;;;12.10;99.90;;;;;;4975961;28;20498;-84
2023/03/20 00:13:48;;;;;;;35.47;20.13;;;12.20;99.90;;;;;;4975855;28;20432;-82
2023/03/20 00:16:15;;;;;;;34.50;18.27;;;12.20;99.90;;;;;;4943340;28;20453;-78
2023/03/20 00:18:42;;;;;;;33.27;18.47;;;12.20;99.90;;;;;;4970209;28;20485;-83
2023/03/20 00:21:22;;;;;;;34.27;18.67;;;12.20;99.90;;;;;;4975841;28;20972;-80
2023/03/20 00:23:48;;;;;;;33.67;17.83;;;12.10;99.90;;;;;;4959366;28;20188;-82
2023/03/20 00:26:23;;;;;;;36.90;18.17;;;12.20;99.90;;;;;;4975697;28;20927;-84
2023/03/20 00:29:23;;;;;;;32.30;17.43;;;12.20;99.90;;;;;;4988201;28;20521;-84
2023/03/20 00:32:06;;;;;;;33.97;18.70;;;12.20;99.90;;;;;;4973478;28;20434;-84
2023/03/20 00:34:32;;;;;;;34.50;18.63;;;12.30;99.90;;;;;;4974948;28;20434;-84
2023/03/20 00:36:58;;;;;;;37.07;20.73;;;12.20;99.90;;;;;;4974994;28;20484;-83
2023/03/20 00:39:44;;;;;;;34.80;18.87;;;12.20;99.90;;;;;;4975481;28;20182;-83
2023/03/20 00:42:46;;;;;;;26.13;18.03;;;12.20;99.90;;;;;;4973854;28;20430;-83
2023/03/20 00:45:22;;;;;;;31.63;17.30;;;12.20;99.90;;;;;;4975414;28;20479;-83
2023/03/20 00:47:59;;;;;;;29.10;16.60;;;12.30;99.90;;;;;;4974363;28;20424;-83
2023/03/20 00:50:32;;;;;;;29.87;17.27;;;12.30;99.90;;;;;;4975203;28;20446;-84
2023/03/20 00:53:03;;;;;;;31.53;17.60;;;12.30;99.90;;;;;;4975260;28;20428;-84
2023/03/20 00:55:46;;;;;;;31.40;16.50;;;12.30;99.90;;;;;;4975026;28;20445;-84
2023/03/20 00:58:26;;;;;;;33.00;15.83;;;12.30;99.90;;;;;;4974923;28;20468;-84
2023/03/20 01:01:14;;;;;;;28.43;17.27;;;12.40;99.90;;;;;;4973570;28;20450;-83
2023/03/20 01:03:40;;;;;;;26.17;15.20;;;12.40;99.90;;;;;;4973363;28;20478;-81
2023/03/20 01:06:37;;;;;;;24.80;14.23;;;12.50;99.90;;;;;;4973207;28;20868;-84
2023/03/20 01:09:25;;;;;;;32.77;16.47;;;12.40;99.90;;;;;;4974562;28;20175;-84
2023/03/20 01:12:06;;;;;;;26.07;13.30;;;12.40;99.90;;;;;;4974953;28;20805;-84
2023/03/20 01:14:48;;;;;;;23.20;13.77;;;12.40;99.90;;;;;;4974928;28;20401;-84
2023/03/20 01:17:19;;;;;;;29.80;14.73;;;12.50;99.90;;;;;;4974525;28;20488;-83
2023/03/20 01:19:46;;;;;;;24.40;13.53;;;12.50;99.90;;;;;;4974750;28;20755;-80
2023/03/20 01:22:46;;;;;;;24.10;12.77;;;12.50;99.90;;;;;;4974770;28;20426;-81
2023/03/20 01:25:41;;;;;;;20.07;11.90;;;12.50;99.90;;;;;;4974663;28;20429;-83
2023/03/20 01:28:40;;;;;;;25.10;12.87;;;12.40;99.90;;;;;;4974528;28;20509;-80
2023/03/20 01:31:06;;;;;;;23.13;12.50;;;12.30;99.90;;;;;;4973048;28;20420;-81
2023/03/20 01:33:54;;;;;;;20.10;11.80;;;12.20;99.90;;;;;;4974643;28;20442;-84
2023/03/20 01:36:40;;;;;;;19.10;10.87;;;12.30;99.90;;;;;;4973343;28;20959;-84
2023/03/20 01:39:33;;;;;;;20.00;10.47;;;12.20;99.90;;;;;;4974236;28;20430;-80
2023/03/20 01:42:01;;;;;;;20.00;11.47;;;12.20;99.90;;;;;;4974458;28;20419;-80
2023/03/20 01:44:32;;;;;;;19.20;11.60;;;12.20;99.90;;;;;;4974481;28;20455;-80
2023/03/20 01:47:01;;;;;;;16.87;10.43;;;12.20;99.90;;;;;;4973792;28;20502;-78
2023/03/20 01:49:27;;;;;;;19.70;10.80;;;12.20;99.90;;;;;;4974276;28;20422;-82
2023/03/20 01:52:09;;;;;;;19.47;11.90;;;12.20;99.90;;;;;;4974364;28;20983;-84
2023/03/20 01:54:57;;;;;;;23.77;12.90;;;12.20;99.90;;;;;;4974350;28;20170;-84
2023/03/20 01:57:59;;;;;;;20.93;11.30;;;12.10;99.90;;;;;;4973945;28;20494;-85
2023/03/20 02:00:25;;;;;;;22.90;13.93;;;11.90;99.90;;;;;;4974234;28;20441;-78
2023/03/20 02:02:51;;;;;;;21.23;13.60;;;12.00;99.90;;;;;;4973944;28;20468;-84
2023/03/20 02:05:28;;;;;;;25.07;14.40;;;12.00;99.90;;;;;;4974238;28;20253;-85
2023/03/20 02:08:04;;;;;;;24.10;14.67;;;12.10;99.90;;;;;;4973830;28;20432;-85
2023/03/20 02:10:29;;;;;;;22.57;13.00;;;12.00;99.90;;;;;;4974217;28;20426;-80
2023/03/20 02:13:04;;;;;;;22.70;12.40;;;12.00;99.90;;;;;;4974146;28;20449;-84
2023/03/20 02:15:34;;;;;;;22.50;12.67;;;12.00;99.90;;;;;;4957348;28;20232;-82
2023/03/20 02:18:02;;;;;;;24.67;13.47;;;11.90;99.90;;;;;;4933137;28;20552;-84
2023/03/20 02:20:50;;;;;;;30.37;15.10;;;11.90;99.90;;;;;;4975187;28;20438;-84
2023/03/20 02:23:53;;;;;;;27.80;14.17;;;11.80;99.90;;;;;;4976770;28;20438;-84
2023/03/20 02:26:53;;;;;;;25.13;13.43;;;11.80;99.90;;;;;;4987500;28;20778;-78
2023/03/20 02:29:47;;;;;;;23.73;12.50;;;11.70;99.90;;;;;;4976727;28;20564;-82
2023/03/20 02:32:34;;;;;;;21.53;12.63;;;11.50;99.90;;;;;;4977440;28;20851;-78
2023/03/20 02:35:36;;;;;;;26.23;14.50;;;11.40;99.90;;;;;;4975964;28;20420;-84
2023/03/20 02:38:32;;;;;;;18.87;10.43;;;11.30;99.90;;;;;;4964267;28;20506;-83
2023/03/20 02:41:36;;;;;;;17.63;9.30;;;11.30;99.90;;;;;;4977491;28;20501;-83
2023/03/20 02:44:30;;;;;;;21.30;11.07;;;11.30;99.90;;;;;;4976102;28;20516;-83
2023/03/20 02:47:47;;;;;;;17.73;10.10;;;11.40;99.90;;;;;;4977456;28;20778;-83
2023/03/20 02:51:08;;;;;;;15.83;9.47;;;11.40;99.90;;;;;;4976137;28;20443;-85
2023/03/20 02:54:14;;;;;;;16.90;9.53;;;11.40;99.90;;;;;;4977325;28;20992;-86
2023/03/20 02:57:05;;;;;;;19.00;9.97;;;11.40;99.90;;;;;;4977302;28;20440;-83
2023/03/20 03:00:01;;;;;;;24.50;10.07;;;11.40;99.90;;;;;;4976050;28;20984;-80
2023/03/20 03:02:38;;;;;;;18.97;9.73;;;11.40;99.90;;;;;;4975782;28;20428;-83
2023/03/20 03:05:34;;;;;;;20.37;10.00;;;11.40;99.90;;;;;;4975927;28;20431;-83
2023/03/20 03:08:03;;;;;;;21.67;11.07;;;11.50;99.90;;;;;;4975311;28;20824;-82
2023/03/20 03:11:07;;;;;;;20.63;10.30;;;11.50;99.90;;;;;;4977269;28;20428;-82
2023/03/20 03:14:20;;;;;;;18.97;10.00;;;11.50;99.90;;;;;;4955663;29;20430;-84
2023/03/20 03:16:48;;;;;;;19.47;10.83;;;11.50;99.90;;;;;;4976604;28;20414;-83
2023/03/20 03:19:25;;;;;;;20.63;10.20;;;11.60;99.90;;;;;;4976709;28;20817;-84
2023/03/20 03:22:11;;;;;;;18.20;11.03;;;11.60;99.90;;;;;;4959587;28;20416;-84
2023/03/20 03:25:31;;;;;;;21.43;11.40;;;11.50;99.90;;;;;;4976689;28;20475;-83
2023/03/20 03:28:41;;;;;;;26.90;13.00;;;11.40;99.90;;;;;;4975552;28;20421;-83
2023/03/20 03:31:20;;;;;;;24.97;13.00;;;11.30;99.90;;;;;;4954838;28;20826;-84
2023/03/20 03:34:00;;;;;;;26.30;13.40;;;11.40;99.90;;;;;;4953300;29;20447;-79
2023/03/20 03:37:21;;;;;;;24.43;12.50;;;11.40;99.90;;;;;;4955320;29;20429;-82
2023/03/20 03:40:07;;;;;;;26.27;13.20;;;11.40;99.90;;;;;;4964297;28;20494;-83
2023/03/20 03:43:19;;;;;;;22.57;12.93;;;11.30;99.90;;;;;;4976584;28;20422;-83
2023/03/20 03:46:22;;;;;;;22.90;13.60;;;11.40;99.90;;;;;;4974932;28;20419;-83
2023/03/20 03:49:12;;;;;;;20.33;11.33;;;11.40;99.90;;;;;;4941196;28;20426;-82
2023/03/20 03:51:41;;;;;;;22.47;11.63;;;11.50;99.90;;;;;;4990930;28;20428;-82
2023/03/20 03:54:12;;;;;;;16.93;9.87;;;11.40;99.90;;;;;;4973900;28;20516;-80
2023/03/20 03:56:41;;;;;;;21.80;10.03;;;11.40;99.90;;;;;;4933935;28;20434;-79
2023/03/20 03:59:50;;;;;;;19.00;11.00;;;11.30;99.90;;;;;;4974516;28;20508;-80
2023/03/20 04:02:21;;;;;;;20.67;10.47;;;11.40;99.90;;;;;;4976135;28;20471;-82
2023/03/20 04:05:08;;;;;;;19.50;9.53;;;11.40;99.90;;;;;;4974868;28;20430;-81
2023/03/20 04:07:44;;;;;;;18.47;7.80;;;11.40;99.90;;;;;;4975981;28;20884;-82
2023/03/20 04:10:21;;;;;;;14.40;7.80;;;11.40;99.90;;;;;;5006897;28;20470;-83
2023/03/20 04:12:49;;;;;;;13.23;9.47;;;11.40;99.90;;;;;;4974808;28;20414;-84
2023/03/20 04:15:16;;;;;;;14.27;9.10;;;11.40;99.90;;;;;;4973863;28;20420;-84
2023/03/20 04:17:45;;;;;;;17.80;9.77;;;11.40;99.90;;;;;;4974646;28;20504;-83
2023/03/20 04:20:29;;;;;;;18.43;11.20;;;11.30;99.90;;;;;;4975951;23;20857;-82
2023/03/20 04:22:54;;;;;;;14.47;7.87;;;11.30;99.90;;;;;;4935950;29;20924;-80
2023/03/20 04:25:26;;;;;;;12.67;8.10;;;11.20;99.90;;;;;;4950853;28;21002;-83
2023/03/20 04:27:52;;;;;;;16.00;8.57;;;11.10;99.90;;;;;;4937579;29;20953;-80
2023/03/20 04:30:19;;;;;;;15.60;8.00;;;11.10;99.90;;;;;;4936790;29;20419;-81
2023/03/20 04:32:45;;;;;;;10.77;6.67;;;11.10;99.90;;;;;;4951706;28;20525;-79
2023/03/20 04:35:11;;;;;;;15.70;9.20;;;11.20;99.90;;;;;;4936907;29;20461;-80
2023/03/20 04:37:36;;;;;;;13.60;7.90;;;11.30;99.90;;;;;;4935416;29;20222;-83
2023/03/20 04:40:03;;;;;;;11.63;7.30;;;11.30;99.90;;;;;;4935669;29;20192;-79
2023/03/20 04:42:29;;;;;;;14.63;8.50;;;11.40;99.90;;;;;;4936345;29;20552;-79
2023/03/20 04:44:55;;;;;;;15.80;8.37;;;11.40;99.90;;;;;;4936810;29;20422;-79
2023/03/20 04:47:20;;;;;;;13.03;7.37;;;11.40;99.90;;;;;;4936290;29;20497;-78
2023/03/20 04:49:46;;;;;;;13.60;7.40;;;11.30;99.90;;;;;;4936194;29;20194;-88
2023/03/20 04:52:15;;;;;;;14.07;7.97;;;11.30;99.90;;;;;;4936622;29;20194;-87
2023/03/20 04:54:48;;;;;;;13.00;7.20;;;11.30;99.90;;;;;;4954156;28;20190;-87
2023/03/20 04:57:30;;;;;;;15.30;8.30;;;11.20;99.90;;;;;;4935542;29;20457;-86
2023/03/20 05:00:28;;;;;;;17.47;9.80;;;11.10;99.90;;;;;;4951555;28;21028;-86
2023/03/20 05:02:54;;;;;;;14.73;8.17;;;10.80;99.90;;;;;;4935297;29;20830;-86
2023/03/20 05:05:27;;;;;;;13.43;8.13;;;10.90;99.90;;;;;;4950248;28;20943;-85
2023/03/20 05:07:54;;;;;;;9.50;6.27;;;10.80;99.90;;;;;;4935872;29;20423;-86
2023/03/20 05:10:20;;;;;;;12.30;6.47;;;10.60;99.90;;;;;;4936054;29;20433;-87
2023/03/20 05:12:51;;;;;;;12.20;7.30;;;10.60;99.90;;;;;;4951475;28;20430;-85
2023/03/20 05:15:18;;;;;;;11.33;5.87;;;10.70;99.90;;;;;;4935139;29;20183;-81
2023/03/20 05:17:43;;;;;;;9.47;5.63;;;10.60;99.90;;;;;;4936510;29;20460;-82
2023/03/20 05:20:15;;;;;;;11.13;6.00;;;10.60;99.90;;;;;;4936466;28;20516;-83
2023/03/20 05:22:43;;;;;;;11.43;6.80;;;10.60;99.90;;;;;;4936639;29;20178;-80
2023/03/20 05:25:09;;;;;;;10.70;6.73;;;10.50;99.90;;;;;;4936477;29;20430;-87
2023/03/20 05:27:34;;;;;;;12.23;6.20;;;10.40;99.90;;;;;;4951185;28;20431;-84
2023/03/20 05:29:59;;;;;;;11.43;5.60;;;10.40;99.90;;;;;;4950820;28;20265;-82
2023/03/20 05:32:25;;;;;;;6.90;5.53;;;10.50;99.90;;;;;;4894191;29;21176;-78
2023/03/20 05:34:51;;;;;;;11.50;5.10;;;10.60;99.90;;;;;;4936326;29;20225;-86
2023/03/20 05:37:17;;;;;;;8.30;4.50;;;10.60;99.90;;;;;;4935981;29;20430;-87
2023/03/20 05:39:43;;;;;;;10.60;6.53;;;10.60;99.90;;;;;;4950821;28;20458;-79
2023/03/20 05:42:09;;;;;;;11.20;4.33;;;10.60;99.90;;;;;;4936136;29;20233;-79
2023/03/20 05:44:37;;;;;;;10.00;4.90;;;10.50;99.90;;;;;;4952358;28;20434;-85
2023/03/20 05:47:03;;;;;;;9.40;5.33;;;10.50;99.90;;;;;;4936871;29;20246;-84
2023/03/20 05:49:28;;;;;;;10.07;5.23;;;10.50;99.90;;;;;;4936053;29;20861;-83
2023/03/20 05:51:54;;;;;;;14.97;5.03;;;10.50;99.90;;;;;;4936195;29;20541;-87
2023/03/20 05:54:19;;;;;;;12.47;5.97;;;10.30;99.90;;;;;;4934862;29;20185;-86
2023/03/20 05:56:45;;;;;;;9.23;4.70;;;10.30;99.90;;;;;;4935922;29;20627;-84
2023/03/20 05:59:11;;;;;;;11.77;5.63;;;10.40;99.90;;;;;;4935738;29;20683;-81
2023/03/20 06:01:37;;;;;;;9.70;3.87;;;10.40;99.90;;;;;;4950292;28;20914;-84
2023/03/20 06:04:04;;;;;;;15.83;5.20;;;10.40;99.90;;;;;;4935866;29;20422;-84
2023/03/20 06:06:50;;;;;;;8.53;5.67;;;10.50;99.90;;;;;;4935898;29;20361;-85
2023/03/20 06:09:16;;;;;;;9.70;6.10;;;10.30;99.90;;;;;;4934318;29;20428;-85
2023/03/20 06:11:42;;;;;;;8.20;4.60;;;10.20;99.90;;;;;;4935758;29;20420;-85
2023/03/20 06:14:07;;;;;;;11.43;5.40;;;10.30;99.90;;;;;;4935753;29;20489;-80
2023/03/20 06:16:33;;;;;;;9.20;4.00;;;10.20;99.90;;;;;;4935140;29;20186;-82
2023/03/20 06:19:01;;;;;;;8.13;5.03;;;10.30;99.90;;;;;;4935323;29;20233;-82
2023/03/20 06:21:27;;;;;;;8.90;6.10;;;10.30;99.90;;;;;;4935626;29;20587;-79
2023/03/20 06:23:53;;;;;;;13.67;5.60;;;10.30;99.90;;;;;;4935538;29;20424;-79
2023/03/20 06:26:20;;;;;;;10.20;5.23;;;10.30;99.90;;;;;;4935595;29;20541;-82
2023/03/20 06:28:47;;;;;;;9.73;5.63;;;10.20;99.90;;;;;;4935197;29;20923;-81
2023/03/20 06:31:12;;;;;;;9.20;5.07;;;10.30;99.90;;;;;;4933781;29;20443;-80
2023/03/20 06:33:39;;;;;;;11.00;7.10;;;10.20;99.90;;;;;;4932312;29;20442;-79
2023/03/20 06:36:04;;;;;;;9.97;5.40;;;10.30;99.90;;;;;;4932458;29;20214;-80
2023/03/20 06:38:30;;;;;;;8.60;5.20;;;10.50;99.90;;;;;;4946864;28;20589;-81
2023/03/20 06:40:55;;;;;;;10.90;4.80;;;10.50;99.90;;;;;;4947126;28;20173;-81
2023/03/20 06:43:27;;;;;;;9.07;4.60;;;10.40;99.90;;;;;;4932358;29;20190;-82
2023/03/20 06:45:54;;;;;;;10.13;5.90;;;10.40;99.90;;;;;;4932373;28;20191;-79
2023/03/20 06:48:22;;;;;;;10.83;4.60;;;10.50;99.90;;;;;;4893025;29;20511;-86
2023/03/20 06:50:50;;;;;;;9.70;5.10;;;10.50;99.90;;;;;;4949891;29;20429;-79
2023/03/20 06:53:16;;;;;;;7.40;5.03;;;10.60;99.90;;;;;;4949751;28;20415;-79
2023/03/20 06:55:45;;;;;;;6.50;4.13;;;10.60;99.90;;;;;;4949718;28;20753;-79
2023/03/20 06:58:10;;;;;;;8.20;4.30;;;10.60;99.90;;;;;;4935234;29;20296;-86
2023/03/20 07:00:43;;;;;;;8.37;4.67;;;10.60;99.90;;;;;;4934814;29;21054;-81
2023/03/20 07:03:10;;;;;;;8.67;3.90;;;10.60;99.90;;;;;;4935376;29;20430;-79
2023/03/20 07:05:40;;;;;;;9.03;3.67;;;10.40;99.90;;;;;;4936019;29;20778;-80
2023/03/20 07:08:08;;;;;;;8.93;4.20;;;10.40;99.90;;;;;;4937614;29;20430;-82
2023/03/20 07:10:34;;;;;;;6.17;3.07;;;10.50;99.90;;;;;;4953482;28;20421;-78
2023/03/20 07:13:00;;;;;;;5.87;2.43;;;10.40;99.90;;;;;;4939157;29;20425;-79
2023/03/20 07:15:26;;;;;;;6.43;3.50;;;10.40;99.90;;;;;;4938945;29;20492;-80
2023/03/20 07:17:52;;;;;;;7.20;4.10;;;10.50;99.90;;;;;;4938515;29;20565;-83
2023/03/20 07:20:18;;;;;;;5.67;3.70;;;10.40;99.90;;;;;;4938373;29;20301;-86
2023/03/20 07:22:44;;;;;;;5.03;3.40;;;10.50;99.90;;;;;;4938533;29;20698;-80
2023/03/20 07:25:10;;;;;;;7.57;3.53;;;10.40;99.90;;;;;;4953275;28;20423;-80
2023/03/20 07:27:36;;;;;;;5.53;3.53;;;10.30;99.90;;;;;;4938527;29;20170;-84
2023/03/20 07:30:14;;;;;;;6.20;3.50;;;10.30;99.90;;;;;;4952735;28;20431;-82
2023/03/20 07:32:40;;;;;;;5.17;3.13;;;10.20;99.90;;;;;;4937971;29;20416;-79
2023/03/20 07:35:10;;;;;;;6.10;3.27;;;10.20;99.90;;;;;;4938233;29;20428;-80
2023/03/20 07:37:36;;;;;;;4.90;3.30;;;10.20;99.90;;;;;;4938064;29;20240;-77
2023/03/20 07:40:02;;;;;;;4.67;3.40;;;10.20;99.90;;;;;;4938101;29;20464;-85
2023/03/20 07:42:28;;;;;;;7.80;2.77;;;10.30;99.90;;;;;;4952827;28;20174;-80
2023/03/20 07:45:12;;;;;;;6.00;3.87;;;10.40;99.90;;;;;;4937560;29;20523;-85
2023/03/20 07:47:57;;;;;;;4.60;3.10;;;10.40;99.90;;;;;;4937898;29;20427;-78
2023/03/20 07:50:23;;;;;;;6.67;3.33;;;10.50;99.90;;;;;;4897356;29;20924;-79
2023/03/20 07:52:50;;;;;;;9.60;3.90;;;10.50;99.90;;;;;;4937459;29;20178;-80
2023/03/20 07:55:16;;;;;;;6.50;2.97;;;10.40;99.90;;;;;;4938279;28;20207;-89
2023/03/20 07:57:49;;;;;;;4.00;2.77;;;10.50;99.90;;;;;;4937991;29;20473;-83
2023/03/20 08:00:17;;;;;;;5.90;3.20;;;10.60;99.90;;;;;;4937392;29;20413;-79
2023/03/20 08:02:43;;;;;;;6.43;3.00;;;10.60;99.90;;;;;;4937774;29;20422;-79
2023/03/20 08:05:09;;;;;;;8.60;3.00;;;10.70;99.90;;;;;;4937745;29;20430;-81
2023/03/20 08:07:35;;;;;;;6.53;3.33;;;10.60;99.90;;;;;;4937753;29;20920;-78
2023/03/20 08:10:02;;;;;;;5.00;3.33;;;10.70;99.90;;;;;;4937641;29;20418;-78
2023/03/20 08:12:28;;;;;;;5.10;2.30;;;10.70;99.90;;;;;;4936288;29;20186;-79
2023/03/20 08:14:53;;;;;;;7.20;3.37;;;10.70;99.90;;;;;;4937204;29;20419;-77
2023/03/20 08:17:21;;;;;;;6.00;2.27;;;10.70;99.90;;;;;;4936625;29;20826;-78
2023/03/20 08:19:47;;;;;;;5.20;2.17;;;10.70;99.90;;;;;;4937371;29;20475;-78
2023/03/20 08:22:14;;;;;;;4.53;2.47;;;10.70;84.70;;;;;;4937541;29;20908;-78
2023/03/20 08:24:41;;;;;;;4.77;1.97;;;10.70;61.60;;;;;;4937455;29;20206;-77
2023/03/20 08:27:07;;;;;;;8.00;3.60;;;10.70;52.30;;;;;;4937414;29;20439;-78
2023/03/20 08:29:33;;;;;;;6.83;2.90;;;10.90;76.00;;;;;;4937278;28;20422;-82
2023/03/20 08:31:59;;;;;;;4.87;2.70;;;10.90;29.60;;;;;;4936855;29;20919;-78
2023/03/20 08:34:25;;;;;;;6.70;2.10;;;11.00;1.00;;;;;;4936745;29;20183;-82
2023/03/20 08:36:51;;;;;;;4.03;2.03;;;10.90;22.30;;;;;;4937237;29;20175;-78
2023/03/20 08:39:17;;;;;;;5.60;2.20;;;10.90;1.00;;;;;;4936961;29;20469;-81
2023/03/20 08:41:44;;;;;;;5.67;2.97;;;11.00;4.90;;;;;;4937062;29;20430;-78
2023/03/20 08:44:10;;;;;;;5.20;2.80;;;10.90;1.00;;;;;;4951797;28;20180;-79
2023/03/20 08:46:36;;;;;;;7.80;2.37;;;10.90;1.00;;;;;;4936769;29;20422;-80
2023/03/20 08:49:22;;;;;;;5.87;3.60;;;10.90;1.00;;;;;;4936915;29;20546;-79
2023/03/20 08:51:47;;;;;;;8.60;3.07;;;11.00;1.00;;;;;;4935661;29;20434;-79
2023/03/20 08:54:17;;;;;;;5.93;3.00;;;11.00;1.00;;;;;;4951663;29;20212;-79
2023/03/20 08:56:51;;;;;;;6.87;3.20;;;10.90;1.00;;;;;;4937267;29;20668;-82
2023/03/20 08:59:18;;;;;;;6.00;2.50;;;10.90;1.00;;;;;;4936866;29;20858;-79
2023/03/20 09:01:43;;;;;;;5.50;3.30;;;10.90;1.00;;;;;;4935260;29;20772;-78
2023/03/20 09:04:12;;;;;;;5.07;2.43;;;10.90;1.00;;;;;;4935444;29;20477;-80
2023/03/20 09:06:45;;;;;;;5.33;3.50;;;10.90;1.00;;;;;;4936459;29;20182;-81
2023/03/20 09:09:14;;;;;;;5.10;2.83;;;11.00;8.80;;;;;;4950426;29;20548;-82
2023/03/20 09:11:40;;;;;;;6.50;3.50;;;11.20;1.00;;;;;;4951201;28;20423;-80
2023/03/20 09:14:05;;;;;;;5.23;2.93;;;11.20;1.00;;;;;;4935106;29;20413;-79
2023/03/20 09:16:32;;;;;;;5.10;3.10;;;11.10;1.00;;;;;;4936421;29;20189;-78
2023/03/20 09:18:57;;;;;;;4.47;2.90;;;11.20;1.00;;;;;;4936154;29;21008;-79
2023/03/20 09:21:24;;;;;;;11.40;3.80;;;11.10;1.00;;;;;;4936525;29;20173;-79
2023/03/20 09:23:49;;;;;;;10.03;3.87;;;11.00;1.00;;;;;;4935061;29;20235;-82
2023/03/20 09:26:15;;;;;;;5.80;3.10;;;11.00;1.00;;;;;;4951147;28;20415;-79
2023/03/20 09:28:51;;;;;;;6.00;3.13;;;11.00;1.00;;;;;;4936168;29;20549;-82
2023/03/20 09:31:16;;;;;;;6.10;3.33;;;11.00;1.00;;;;;;4934930;29;20412;-82
2023/03/20 09:33:42;;;;;;;4.00;2.37;;;11.10;1.00;;;;;;4934891;29;20466;-82
2023/03/20 09:36:25;;;;;;;8.40;3.73;;;11.20;1.00;;;;;;4936332;29;20189;-82
2023/03/20 09:38:54;;;;;;;5.97;3.03;;;11.30;1.00;;;;;;4934820;29;20487;-82
2023/03/20 09:41:23;;;;;;;6.50;2.93;;;11.40;1.00;;;;;;4896029;29;20443;-82
2023/03/20 09:44:13;;;;;;;4.90;3.03;;;11.30;1.00;;;;;;4936134;29;20430;-78
2023/03/20 09:47:00;;;;;;;5.73;3.23;;;11.30;1.00;;;;;;4950804;28;20421;-82
2023/03/20 09:49:47;;;;;;;6.70;2.40;;;11.30;1.00;;;;;;4936091;29;20409;-80
2023/03/20 09:52:31;;;;;;;9.37;4.13;;;11.30;1.00;;;;;;4950813;28;20427;-80
2023/03/20 09:55:15;;;;;;;4.97;3.60;;;11.20;1.00;;;;;;4933922;29;20524;-77
2023/03/20 09:57:45;;;;;;;5.77;3.87;;;11.20;2.80;;;;;;4928827;29;20519;-77
2023/03/20 10:00:16;;;;;;;9.80;3.67;;;11.20;4.40;;;;;;4934215;29;20424;-78
2023/03/20 10:02:47;;;;;;;5.40;3.57;;;11.10;1.00;;;;;;4935645;29;20436;-78
2023/03/20 10:05:20;;;;;;;7.63;3.53;;;11.10;8.20;;;;;;4935421;29;20478;-77
2023/03/20 10:07:46;;;;;;;5.83;3.57;;;11.00;10.40;;;;;;4935239;29;20863;-77
2023/03/20 10:10:19;;;;;;;9.67;4.40;;;11.00;7.80;;;;;;4935490;29;20463;-78
2023/03/20 10:13:07;;;;;;;7.20;3.90;;;11.10;12.70;;;;;;4935368;29;20180;-82
2023/03/20 10:15:42;;;;;;;6.70;3.90;;;11.20;9.80;;;;;;4935135;29;20422;-79
2023/03/20 10:18:26;;;;;;;8.73;4.40;;;11.00;1.00;;;;;;4949785;28;20908;-77
2023/03/20 10:20:55;;;;;;;7.40;4.27;;;10.90;1.00;;;;;;4949849;28;20980;-80
2023/03/20 10:23:36;;;;;;;9.20;4.17;;;10.80;1.00;;;;;;4935289;29;20502;-78
2023/03/20 10:26:39;;;;;;;7.13;3.63;;;11.00;1.00;;;;;;4934457;29;20971;-82
2023/03/20 10:29:30;;;;;;;4.00;3.00;;;11.00;1.00;;;;;;4934990;29;20521;-81
2023/03/20 10:32:27;;;;;;;8.60;4.00;;;11.00;1.00;;;;;;4935562;29;20935;-79
2023/03/20 10:35:14;;;;;;;6.73;4.53;;;11.00;1.00;;;;;;4933719;29;20807;-80
2023/03/20 10:38:05;;;;;;;6.73;3.80;;;11.00;1.00;;;;;;4933894;29;20555;-82
2023/03/20 10:40:34;;;;;;;5.53;3.93;;;11.00;1.00;;;;;;4950708;28;20554;-79
2023/03/20 10:43:11;;;;;;;7.90;4.53;;;11.10;99.90;;;;;;4939193;29;20403;-85
2023/03/20 10:46:01;;;;;;;3.97;3.10;;;11.00;99.90;;;;;;4937651;29;20423;-84
2023/03/20 10:48:47;;;;;;;5.27;2.97;;;10.90;99.90;;;;;;4953825;28;20414;-77
2023/03/20 10:51:37;;;;;;;5.87;2.87;;;11.00;99.90;;;;;;4938134;29;20465;-80
2023/03/20 10:54:05;;;;;;;6.33;4.03;;;11.10;99.90;;;;;;4923219;28;20433;-76
2023/03/20 10:56:54;;;;;;;4.30;3.07;;;11.00;99.90;;;;;;4931739;29;20438;-84
2023/03/20 10:59:20;;;;;;;8.33;4.53;;;11.10;1.00;;;;;;4938522;29;20507;-84
2023/03/20 11:01:45;;;;;;;5.40;3.60;;;11.10;1.00;;;;;;4938698;29;20442;-83
2023/03/20 11:04:15;;;;;;;7.73;3.00;;;11.20;1.00;;;;;;4938818;29;20230;-84
2023/03/20 11:06:55;;;;;;;8.67;3.83;;;11.20;99.90;;;;;;4937477;29;20537;-79
2023/03/20 11:09:29;;;;;;;8.40;5.13;;;11.20;99.90;;;;;;4953452;29;20863;-79
2023/03/20 11:12:00;;;;;;;7.47;3.80;;;11.30;99.90;;;;;;4953479;29;20462;-80
2023/03/20 11:14:51;;;;;;;7.07;3.27;;;11.30;1.00;;;;;;4953077;29;20456;-81
2023/03/20 11:17:17;;;;;;;13.97;4.73;;;11.40;1.00;;;;;;4938335;29;20473;-78
2023/03/20 11:19:42;;;;;;;7.67;3.37;;;11.60;99.90;;;;;;4953149;29;20508;-79
2023/03/20 11:22:25;;;;;;;9.23;4.00;;;11.70;99.90;;;;;;4953064;29;20187;-78
2023/03/20 11:24:54;;;;;;;8.97;3.03;;;11.70;99.90;;;;;;4938562;29;20561;-77
2023/03/20 11:27:40;;;;;;;6.70;3.30;;;11.60;99.90;;;;;;4938460;29;20417;-78
2023/03/20 11:30:14;;;;;;;6.00;2.00;;;11.60;1.00;;;;;;4936557;29;20431;-78
2023/03/20 11:32:45;;;;;;;8.50;4.43;;;11.60;99.90;;;;;;4938419;29;20927;-78
2023/03/20 11:35:30;;;;;;;4.20;2.03;;;11.60;1.00;;;;;;4936878;29;20515;-78
2023/03/20 11:38:13;;;;;;;7.50;3.60;;;11.60;1.00;;;;;;4938275;29;20483;-78
2023/03/20 11:40:38;;;;;;;9.03;3.60;;;11.50;1.00;;;;;;4938294;29;20935;-78
2023/03/20 11:43:25;;;;;;;10.83;3.03;;;11.60;99.90;;;;;;4938300;29;20423;-79
2023/03/20 11:45:57;;;;;;;4.30;2.17;;;11.40;99.90;;;;;;4937793;29;20175;-77
2023/03/20 11:48:25;;;;;;;6.53;2.97;;;11.50;99.90;;;;;;4937927;29;20420;-78
2023/03/20 11:51:02;;;;;;;6.73;3.10;;;11.60;95.10;;;;;;4938004;29;20420;-77
2023/03/20 11:53:48;;;;;;;7.20;3.57;;;11.50;1.00;;;;;;4936796;29;20515;-78
2023/03/20 11:56:24;;;;;;;6.30;3.03;;;11.60;1.00;;;;;;4940363;29;20427;-79
2023/03/20 11:59:05;;;;;;;5.60;2.80;;;11.60;1.00;;;;;;4937793;29;20914;-79
2023/03/20 12:01:47;;;;;;;9.60;2.40;;;11.50;1.00;;;;;;4937812;29;20408;-78
2023/03/20 12:04:18;;;;;;;4.30;2.13;;;11.60;1.00;;;;;;4937731;29;20483;-79
2023/03/20 12:07:00;;;;;;;5.40;3.13;;;11.60;1.00;;;;;;4898452;28;20434;-78
2023/03/20 12:09:40;;;;;;;9.17;3.70;;;11.60;1.00;;;;;;4937761;29;20429;-79
2023/03/20 12:12:39;;;;;;;7.80;3.50;;;11.60;99.90;;;;;;4937574;29;20943;-78
2023/03/20 12:15:25;;;;;;;5.13;2.77;;;11.60;1.00;;;;;;4938076;29;20593;-78
2023/03/20 12:18:00;;;;;;;5.80;3.07;;;11.70;1.00;;;;;;4937594;29;20467;-79
2023/03/20 12:20:50;;;;;;;6.80;3.43;;;11.60;99.90;;;;;;4937323;29;20465;-79
2023/03/20 12:23:55;;;;;;;4.70;2.60;;;11.60;99.90;;;;;;4937442;29;20411;-79
2023/03/20 12:26:27;;;;;;;7.27;3.60;;;11.60;99.90;;;;;;4917626;29;20434;-78
2023/03/20 12:29:03;;;;;;;8.00;2.73;;;11.60;1.00;;;;;;4918063;29;20409;-77
2023/03/20 12:31:55;;;;;;;5.30;2.43;;;11.60;99.50;;;;;;4932983;29;20414;-78
2023/03/20 12:34:52;;;;;;;6.33;3.90;;;11.60;1.00;;;;;;4912634;29;20624;-78
2023/03/20 12:37:18;;;;;;;9.30;3.80;;;11.60;1.00;;;;;;4932416;29;20474;-77
2023/03/20 12:39:59;;;;;;;3.47;2.07;;;11.60;1.00;;;;;;4937249;29;20868;-78
2023/03/20 12:42:52;;;;;;;5.50;3.13;;;11.80;1.00;;;;;;4937220;29;20190;-79
2023/03/20 12:45:25;;;;;;;6.97;3.80;;;12.00;17.40;;;;;;4936710;29;20482;-78
2023/03/20 12:48:29;;;;;;;8.40;4.00;;;12.20;1.00;;;;;;4935814;29;20473;-79
2023/03/20 12:51:10;;;;;;;7.50;3.30;;;12.10;1.00;;;;;;4937189;29;20425;-78
2023/03/20 12:54:12;;;;;;;6.13;3.90;;;12.20;99.90;;;;;;4936910;29;20427;-78
2023/03/20 12:56:55;;;;;;;5.47;3.07;;;12.20;99.90;;;;;;4935556;29;20767;-77
2023/03/20 12:59:39;;;;;;;5.00;3.40;;;12.30;99.90;;;;;;4936454;29;20551;-77
2023/03/20 13:02:16;;;;;;;9.70;4.47;;;12.30;99.90;;;;;;4936761;29;20412;-77
2023/03/20 13:05:09;;;;;;;6.17;3.60;;;12.30;99.90;;;;;;4936173;29;20407;-78
2023/03/20 13:07:59;;;;;;;6.70;3.90;;;12.40;1.00;;;;;;4935293;29;20417;-78
2023/03/20 13:10:40;;;;;;;8.30;3.73;;;12.80;1.00;;;;;;4916937;28;20847;-76
2023/03/20 13:13:50;;;;;;;5.43;2.87;;;13.00;1.00;;;;;;4936376;29;20421;-78
2023/03/20 13:16:32;;;;;;;6.80;2.97;;;13.30;1.00;;;;;;4938736;29;20437;-79
2023/03/20 13:19:08;;;;;;;11.83;3.73;;;13.60;99.90;;;;;;4950956;29;20910;-79
2023/03/20 13:21:45;;;;;;;4.23;2.70;;;13.90;99.90;;;;;;4936058;29;20429;-79
2023/03/20 13:24:41;;;;;;;4.50;2.90;;;14.00;99.90;;;;;;4935945;29;20423;-79
2023/03/20 13:27:33;;;;;;;5.13;2.60;;;14.00;99.90;;;;;;4934354;29;20424;-77
2023/03/20 13:30:21;;;;;;;5.10;2.80;;;14.00;99.90;;;;;;4935643;29;20821;-77